sensor_id;sensor_type;location;lat;lon;timestamp;P1;durP1;ratioP1;P2;durP2;ratioP2
62588;SDS011;58504;48.770;9.148;2023-09-12T00:00:06;1.80;;;1.70;;
62588;SDS011;58504;48.770;9.148;2023-09-12T00:02:35;1.65;;;1.55;;
62588;SDS011;58504;48.770;9.148;2023-09-12T00:05:02;1.80;;;1.70;;
62588;SDS011;58504;48.770;9.148;2023-09-12T00:07:29;1.92;;;1.83;;
62588;SDS011;58504;48.770;9.148;2023-09-12T00:09:56;1.75;;;1.67;;
62588;SDS011;58504;48.770;9.148;2023-09-12T00:12:23;1.60;;;1.50;;
62588;SDS011;58504;48.770;9.148;2023-09-12T00:14:50;2.20;;;2.10;;
62588;SDS011;58504;48.770;9.148;2023-09-12T00:17:17;1.90;;;1.80;;
62588;SDS011;58504;48.770;9.148;2023-09-12T00:19:46;1.85;;;1.75;;
62588;SDS011;58504;48.770;9.148;2023-09-12T00:22:12;1.60;;;1.50;;
62588;SDS011;58504;48.770;9.148;2023-09-12T00:24:39;1.83;;;1.73;;
62588;SDS011;58504;48.770;9.148;2023-09-12T00:27:06;1.60;;;1.60;;
62588;SDS011;58504;48.770;9.148;2023-09-12T00:29:33;1.67;;;1.58;;
62588;SDS011;58504;48.770;9.148;2023-09-12T00:31:59;1.40;;;1.40;;
62588;SDS011;58504;48.770;9.148;2023-09-12T00:34:28;1.67;;;1.58;;
62588;SDS011;58504;48.770;9.148;2023-09-12T00:36:56;1.80;;;1.70;;
62588;SDS011;58504;48.770;9.148;2023-09-12T00:39:23;1.92;;;1.83;;
62588;SDS011;58504;48.770;9.148;2023-09-12T00:41:49;1.52;;;1.42;;
62588;SDS011;58504;48.770;9.148;2023-09-12T00:44:16;1.70;;;1.60;;
62588;SDS011;58504;48.770;9.148;2023-09-12T00:46:43;1.73;;;1.63;;
62588;SDS011;58504;48.770;9.148;2023-09-12T00:49:11;1.70;;;1.60;;
62588;SDS011;58504;48.770;9.148;2023-09-12T00:51:39;1.63;;;1.58;;
62588;SDS011;58504;48.770;9.148;2023-09-12T00:54:09;1.95;;;1.85;;
62588;SDS011;58504;48.770;9.148;2023-09-12T00:56:37;1.83;;;1.73;;
62588;SDS011;58504;48.770;9.148;2023-09-12T00:59:04;1.88;;;1.77;;
62588;SDS011;58504;48.770;9.148;2023-09-12T01:01:31;1.75;;;1.65;;
62588;SDS011;58504;48.770;9.148;2023-09-12T01:03:59;1.55;;;1.50;;
62588;SDS011;58504;48.770;9.148;2023-09-12T01:06:26;1.77;;;1.67;;
62588;SDS011;58504;48.770;9.148;2023-09-12T01:08:57;1.88;;;1.77;;
62588;SDS011;58504;48.770;9.148;2023-09-12T01:11:26;2.00;;;1.90;;
62588;SDS011;58504;48.770;9.148;2023-09-12T01:13:54;2.05;;;1.95;;
62588;SDS011;58504;48.770;9.148;2023-09-12T01:16:21;1.98;;;1.88;;
62588;SDS011;58504;48.770;9.148;2023-09-12T01:18:48;2.15;;;2.05;;
62588;SDS011;58504;48.770;9.148;2023-09-12T01:21:26;1.88;;;1.77;;
62588;SDS011;58504;48.770;9.148;2023-09-12T01:27:20;1.85;;;1.75;;
62588;SDS011;58504;48.770;9.148;2023-09-12T01:29:51;1.60;;;1.50;;
62588;SDS011;58504;48.770;9.148;2023-09-12T01:32:20;1.90;;;1.80;;
62588;SDS011;58504;48.770;9.148;2023-09-12T01:34:47;2.03;;;1.92;;
62588;SDS011;58504;48.770;9.148;2023-09-12T01:37:14;1.90;;;1.80;;
62588;SDS011;58504;48.770;9.148;2023-09-12T01:39:41;1.77;;;1.67;;
62588;SDS011;58504;48.770;9.148;2023-09-12T01:42:08;1.90;;;1.80;;
62588;SDS011;58504;48.770;9.148;2023-09-12T01:44:40;1.73;;;1.63;;
62588;SDS011;58504;48.770;9.148;2023-09-12T01:47:09;1.88;;;1.77;;
62588;SDS011;58504;48.770;9.148;2023-09-12T01:49:37;1.83;;;1.73;;
62588;SDS011;58504;48.770;9.148;2023-09-12T01:52:08;1.75;;;1.65;;
62588;SDS011;58504;48.770;9.148;2023-09-12T01:54:36;1.80;;;1.70;;
62588;SDS011;58504;48.770;9.148;2023-09-12T01:57:04;2.05;;;1.95;;
62588;SDS011;58504;48.770;9.148;2023-09-12T01:59:31;1.80;;;1.70;;
62588;SDS011;58504;48.770;9.148;2023-09-12T02:01:59;1.63;;;1.52;;
62588;SDS011;58504;48.770;9.148;2023-09-12T02:04:27;1.90;;;1.80;;
62588;SDS011;58504;48.770;9.148;2023-09-12T02:06:53;1.80;;;1.70;;
62588;SDS011;58504;48.770;9.148;2023-09-12T02:09:20;1.67;;;1.58;;
62588;SDS011;58504;48.770;9.148;2023-09-12T02:11:48;1.63;;;1.52;;
62588;SDS011;58504;48.770;9.148;2023-09-12T02:14:15;1.70;;;1.60;;
62588;SDS011;58504;48.770;9.148;2023-09-12T02:16:42;1.80;;;1.70;;
62588;SDS011;58504;48.770;9.148;2023-09-12T02:19:11;1.63;;;1.52;;
62588;SDS011;58504;48.770;9.148;2023-09-12T02:21:37;1.88;;;1.77;;
62588;SDS011;58504;48.770;9.148;2023-09-12T02:24:04;2.13;;;2.03;;
62588;SDS011;58504;48.770;9.148;2023-09-12T02:26:31;1.67;;;1.63;;
62588;SDS011;58504;48.770;9.148;2023-09-12T02:29:01;2.20;;;2.10;;
62588;SDS011;58504;48.770;9.148;2023-09-12T02:31:28;1.88;;;1.77;;
62588;SDS011;58504;48.770;9.148;2023-09-12T02:33:55;1.85;;;1.75;;
62588;SDS011;58504;48.770;9.148;2023-09-12T02:36:23;3.60;;;2.10;;
62588;SDS011;58504;48.770;9.148;2023-09-12T02:38:50;2.72;;;1.70;;
62588;SDS011;58504;48.770;9.148;2023-09-12T02:41:16;1.80;;;1.70;;
62588;SDS011;58504;48.770;9.148;2023-09-12T02:43:43;1.77;;;1.67;;
62588;SDS011;58504;48.770;9.148;2023-09-12T02:46:10;1.83;;;1.73;;
62588;SDS011;58504;48.770;9.148;2023-09-12T02:48:36;1.80;;;1.70;;
62588;SDS011;58504;48.770;9.148;2023-09-12T02:51:03;1.85;;;1.75;;
62588;SDS011;58504;48.770;9.148;2023-09-12T02:53:31;1.50;;;1.50;;
62588;SDS011;58504;48.770;9.148;2023-09-12T02:55:58;1.88;;;1.77;;
62588;SDS011;58504;48.770;9.148;2023-09-12T02:58:25;2.10;;;1.67;;
62588;SDS011;58504;48.770;9.148;2023-09-12T03:00:51;1.55;;;1.45;;
62588;SDS011;58504;48.770;9.148;2023-09-12T03:03:19;1.90;;;1.80;;
62588;SDS011;58504;48.770;9.148;2023-09-12T03:05:46;1.65;;;1.58;;
62588;SDS011;58504;48.770;9.148;2023-09-12T03:08:13;2.00;;;1.90;;
62588;SDS011;58504;48.770;9.148;2023-09-12T03:10:41;1.80;;;1.70;;
62588;SDS011;58504;48.770;9.148;2023-09-12T03:13:07;1.85;;;1.75;;
62588;SDS011;58504;48.770;9.148;2023-09-12T03:15:37;1.50;;;1.42;;
62588;SDS011;58504;48.770;9.148;2023-09-12T03:18:04;1.80;;;1.70;;
62588;SDS011;58504;48.770;9.148;2023-09-12T03:20:31;1.70;;;1.60;;
62588;SDS011;58504;48.770;9.148;2023-09-12T03:22:58;1.83;;;1.73;;
62588;SDS011;58504;48.770;9.148;2023-09-12T03:25:24;2.00;;;1.90;;
62588;SDS011;58504;48.770;9.148;2023-09-12T03:27:52;2.05;;;1.95;;
62588;SDS011;58504;48.770;9.148;2023-09-12T03:30:19;1.73;;;1.63;;
62588;SDS011;58504;48.770;9.148;2023-09-12T03:32:46;1.58;;;1.48;;
62588;SDS011;58504;48.770;9.148;2023-09-12T03:35:13;1.52;;;1.48;;
62588;SDS011;58504;48.770;9.148;2023-09-12T03:37:39;2.03;;;1.85;;
62588;SDS011;58504;48.770;9.148;2023-09-12T03:40:08;1.88;;;1.77;;
62588;SDS011;58504;48.770;9.148;2023-09-12T03:42:36;1.75;;;1.65;;
62588;SDS011;58504;48.770;9.148;2023-09-12T03:45:05;1.98;;;1.88;;
62588;SDS011;58504;48.770;9.148;2023-09-12T03:47:32;1.88;;;1.77;;
62588;SDS011;58504;48.770;9.148;2023-09-12T03:49:59;1.80;;;1.70;;
62588;SDS011;58504;48.770;9.148;2023-09-12T03:52:27;1.90;;;1.80;;
62588;SDS011;58504;48.770;9.148;2023-09-12T03:54:53;2.10;;;2.00;;
62588;SDS011;58504;48.770;9.148;2023-09-12T03:57:20;1.73;;;1.63;;
62588;SDS011;58504;48.770;9.148;2023-09-12T03:59:47;2.00;;;1.90;;
62588;SDS011;58504;48.770;9.148;2023-09-12T04:02:17;1.70;;;1.60;;
62588;SDS011;58504;48.770;9.148;2023-09-12T04:04:44;1.95;;;1.80;;
62588;SDS011;58504;48.770;9.148;2023-09-12T04:07:11;1.88;;;1.77;;
62588;SDS011;58504;48.770;9.148;2023-09-12T04:09:38;1.63;;;1.52;;
62588;SDS011;58504;48.770;9.148;2023-09-12T04:12:05;1.70;;;1.60;;
62588;SDS011;58504;48.770;9.148;2023-09-12T04:14:34;1.80;;;1.70;;
62588;SDS011;58504;48.770;9.148;2023-09-12T04:17:00;1.60;;;1.60;;
62588;SDS011;58504;48.770;9.148;2023-09-12T04:19:29;2.03;;;1.92;;
62588;SDS011;58504;48.770;9.148;2023-09-12T04:21:56;1.63;;;1.52;;
62588;SDS011;58504;48.770;9.148;2023-09-12T04:24:23;1.67;;;1.58;;
62588;SDS011;58504;48.770;9.148;2023-09-12T04:26:50;1.83;;;1.73;;
62588;SDS011;58504;48.770;9.148;2023-09-12T04:29:16;2.10;;;2.00;;
62588;SDS011;58504;48.770;9.148;2023-09-12T04:31:43;1.73;;;1.63;;
62588;SDS011;58504;48.770;9.148;2023-09-12T04:34:10;1.85;;;1.75;;
62588;SDS011;58504;48.770;9.148;2023-09-12T04:36:38;1.80;;;1.70;;
62588;SDS011;58504;48.770;9.148;2023-09-12T04:39:05;2.90;;;1.50;;
62588;SDS011;58504;48.770;9.148;2023-09-12T04:41:31;1.73;;;1.63;;
62588;SDS011;58504;48.770;9.148;2023-09-12T04:43:58;1.73;;;1.63;;
62588;SDS011;58504;48.770;9.148;2023-09-12T04:46:27;1.70;;;1.60;;
62588;SDS011;58504;48.770;9.148;2023-09-12T04:48:53;1.80;;;1.70;;
62588;SDS011;58504;48.770;9.148;2023-09-12T04:51:20;2.03;;;1.92;;
62588;SDS011;58504;48.770;9.148;2023-09-12T04:53:48;1.63;;;1.55;;
62588;SDS011;58504;48.770;9.148;2023-09-12T04:56:16;2.17;;;1.98;;
62588;SDS011;58504;48.770;9.148;2023-09-12T04:58:43;1.70;;;1.60;;
62588;SDS011;58504;48.770;9.148;2023-09-12T05:01:10;1.50;;;1.50;;
62588;SDS011;58504;48.770;9.148;2023-09-12T05:03:37;1.65;;;1.63;;
62588;SDS011;58504;48.770;9.148;2023-09-12T05:06:04;1.52;;;1.52;;
62588;SDS011;58504;48.770;9.148;2023-09-12T05:08:31;1.70;;;1.60;;
62588;SDS011;58504;48.770;9.148;2023-09-12T05:10:59;1.80;;;1.70;;
62588;SDS011;58504;48.770;9.148;2023-09-12T05:13:26;1.77;;;1.67;;
62588;SDS011;58504;48.770;9.148;2023-09-12T05:15:53;1.48;;;1.48;;
62588;SDS011;58504;48.770;9.148;2023-09-12T05:18:20;2.10;;;2.00;;
62588;SDS011;58504;48.770;9.148;2023-09-12T05:20:47;1.77;;;1.67;;
62588;SDS011;58504;48.770;9.148;2023-09-12T05:23:14;2.35;;;2.25;;
62588;SDS011;58504;48.770;9.148;2023-09-12T05:25:41;1.40;;;1.40;;
62588;SDS011;58504;48.770;9.148;2023-09-12T05:28:09;1.73;;;1.63;;
62588;SDS011;58504;48.770;9.148;2023-09-12T05:30:36;2.17;;;2.08;;
62588;SDS011;58504;48.770;9.148;2023-09-12T05:33:03;1.83;;;1.73;;
62588;SDS011;58504;48.770;9.148;2023-09-12T05:35:30;1.85;;;1.75;;
62588;SDS011;58504;48.770;9.148;2023-09-12T05:37:57;1.67;;;1.58;;
62588;SDS011;58504;48.770;9.148;2023-09-12T05:40:23;1.48;;;1.38;;
62588;SDS011;58504;48.770;9.148;2023-09-12T05:42:50;1.63;;;1.52;;
62588;SDS011;58504;48.770;9.148;2023-09-12T05:45:18;1.98;;;1.50;;
62588;SDS011;58504;48.770;9.148;2023-09-12T05:47:45;1.73;;;1.63;;
62588;SDS011;58504;48.770;9.148;2023-09-12T05:50:13;2.15;;;1.40;;
62588;SDS011;58504;48.770;9.148;2023-09-12T05:52:39;1.90;;;1.80;;
62588;SDS011;58504;48.770;9.148;2023-09-12T05:55:08;1.55;;;1.45;;
62588;SDS011;58504;48.770;9.148;2023-09-12T05:57:34;1.80;;;1.70;;
62588;SDS011;58504;48.770;9.148;2023-09-12T06:00:01;1.60;;;1.60;;
62588;SDS011;58504;48.770;9.148;2023-09-12T06:02:37;1.75;;;1.65;;
62588;SDS011;58504;48.770;9.148;2023-09-12T06:05:04;1.70;;;1.60;;
62588;SDS011;58504;48.770;9.148;2023-09-12T06:07:31;1.73;;;1.63;;
62588;SDS011;58504;48.770;9.148;2023-09-12T06:09:58;1.70;;;1.60;;
62588;SDS011;58504;48.770;9.148;2023-09-12T06:12:25;1.50;;;1.50;;
62588;SDS011;58504;48.770;9.148;2023-09-12T06:14:51;1.67;;;1.58;;
62588;SDS011;58504;48.770;9.148;2023-09-12T06:17:20;1.55;;;1.55;;
62588;SDS011;58504;48.770;9.148;2023-09-12T06:19:48;1.50;;;1.50;;
62588;SDS011;58504;48.770;9.148;2023-09-12T06:22:16;1.83;;;1.73;;
62588;SDS011;58504;48.770;9.148;2023-09-12T06:24:43;1.50;;;1.40;;
62588;SDS011;58504;48.770;9.148;2023-09-12T06:27:10;1.95;;;1.85;;
62588;SDS011;58504;48.770;9.148;2023-09-12T06:29:37;1.58;;;1.58;;
62588;SDS011;58504;48.770;9.148;2023-09-12T06:32:04;1.48;;;1.40;;
62588;SDS011;58504;48.770;9.148;2023-09-12T06:34:31;1.70;;;1.60;;
62588;SDS011;58504;48.770;9.148;2023-09-12T06:36:59;1.75;;;1.65;;
62588;SDS011;58504;48.770;9.148;2023-09-12T06:39:26;1.85;;;1.75;;
62588;SDS011;58504;48.770;9.148;2023-09-12T06:41:53;1.90;;;1.80;;
62588;SDS011;58504;48.770;9.148;2023-09-12T06:44:19;1.77;;;1.67;;
62588;SDS011;58504;48.770;9.148;2023-09-12T06:46:46;1.80;;;1.58;;
62588;SDS011;58504;48.770;9.148;2023-09-12T06:49:13;1.27;;;1.27;;
62588;SDS011;58504;48.770;9.148;2023-09-12T06:51:39;1.08;;;1.08;;
62588;SDS011;58504;48.770;9.148;2023-09-12T06:54:08;1.52;;;1.48;;
62588;SDS011;58504;48.770;9.148;2023-09-12T06:56:34;1.83;;;1.73;;
62588;SDS011;58504;48.770;9.148;2023-09-12T06:59:02;1.50;;;1.40;;
62588;SDS011;58504;48.770;9.148;2023-09-12T07:01:29;1.60;;;1.50;;
62588;SDS011;58504;48.770;9.148;2023-09-12T07:03:56;1.70;;;1.60;;
62588;SDS011;58504;48.770;9.148;2023-09-12T07:06:23;1.50;;;1.45;;
62588;SDS011;58504;48.770;9.148;2023-09-12T07:08:50;1.40;;;1.30;;
62588;SDS011;58504;48.770;9.148;2023-09-12T07:11:18;1.90;;;1.80;;
62588;SDS011;58504;48.770;9.148;2023-09-12T07:13:45;1.48;;;1.38;;
62588;SDS011;58504;48.770;9.148;2023-09-12T07:16:12;1.30;;;1.30;;
62588;SDS011;58504;48.770;9.148;2023-09-12T07:18:39;1.48;;;1.48;;
62588;SDS011;58504;48.770;9.148;2023-09-12T07:21:05;1.83;;;1.73;;
62588;SDS011;58504;48.770;9.148;2023-09-12T07:23:32;1.50;;;1.50;;
62588;SDS011;58504;48.770;9.148;2023-09-12T07:25:59;1.58;;;1.55;;
62588;SDS011;58504;48.770;9.148;2023-09-12T07:28:29;1.70;;;1.67;;
62588;SDS011;58504;48.770;9.148;2023-09-12T07:30:57;1.73;;;1.63;;
62588;SDS011;58504;48.770;9.148;2023-09-12T07:33:24;1.58;;;1.50;;
62588;SDS011;58504;48.770;9.148;2023-09-12T07:35:51;1.50;;;1.50;;
62588;SDS011;58504;48.770;9.148;2023-09-12T07:38:20;1.55;;;1.55;;
62588;SDS011;58504;48.770;9.148;2023-09-12T07:40:47;1.70;;;1.60;;
62588;SDS011;58504;48.770;9.148;2023-09-12T07:43:14;1.45;;;1.40;;
62588;SDS011;58504;48.770;9.148;2023-09-12T07:45:43;1.42;;;1.40;;
62588;SDS011;58504;48.770;9.148;2023-09-12T07:48:10;1.65;;;1.58;;
62588;SDS011;58504;48.770;9.148;2023-09-12T07:50:37;1.70;;;1.60;;
62588;SDS011;58504;48.770;9.148;2023-09-12T07:53:04;1.33;;;1.33;;
62588;SDS011;58504;48.770;9.148;2023-09-12T07:55:31;1.60;;;1.60;;
62588;SDS011;58504;48.770;9.148;2023-09-12T07:58:01;1.80;;;1.70;;
62588;SDS011;58504;48.770;9.148;2023-09-12T08:00:28;1.52;;;1.48;;
62588;SDS011;58504;48.770;9.148;2023-09-12T08:02:56;1.60;;;1.50;;
62588;SDS011;58504;48.770;9.148;2023-09-12T08:05:22;1.52;;;1.42;;
62588;SDS011;58504;48.770;9.148;2023-09-12T08:07:49;1.60;;;1.52;;
62588;SDS011;58504;48.770;9.148;2023-09-12T08:10:16;1.45;;;1.40;;
62588;SDS011;58504;48.770;9.148;2023-09-12T08:12:43;1.63;;;1.52;;
62588;SDS011;58504;48.770;9.148;2023-09-12T08:15:11;1.63;;;1.52;;
62588;SDS011;58504;48.770;9.148;2023-09-12T08:17:38;1.70;;;1.60;;
62588;SDS011;58504;48.770;9.148;2023-09-12T08:20:07;1.90;;;1.80;;
62588;SDS011;58504;48.770;9.148;2023-09-12T08:22:35;1.50;;;1.45;;
62588;SDS011;58504;48.770;9.148;2023-09-12T08:25:02;1.80;;;1.70;;
62588;SDS011;58504;48.770;9.148;2023-09-12T08:27:29;1.63;;;1.63;;
62588;SDS011;58504;48.770;9.148;2023-09-12T08:29:56;1.48;;;1.40;;
62588;SDS011;58504;48.770;9.148;2023-09-12T08:32:23;1.88;;;1.77;;
62588;SDS011;58504;48.770;9.148;2023-09-12T08:34:49;1.40;;;1.40;;
62588;SDS011;58504;48.770;9.148;2023-09-12T08:37:18;1.83;;;1.73;;
62588;SDS011;58504;48.770;9.148;2023-09-12T08:39:45;1.70;;;1.60;;
62588;SDS011;58504;48.770;9.148;2023-09-12T08:42:12;1.70;;;1.65;;
62588;SDS011;58504;48.770;9.148;2023-09-12T08:44:40;1.80;;;1.70;;
62588;SDS011;58504;48.770;9.148;2023-09-12T08:47:07;1.65;;;1.55;;
62588;SDS011;58504;48.770;9.148;2023-09-12T08:49:35;2.10;;;2.00;;
62588;SDS011;58504;48.770;9.148;2023-09-12T08:52:03;1.75;;;1.65;;
62588;SDS011;58504;48.770;9.148;2023-09-12T08:54:31;1.92;;;1.83;;
62588;SDS011;58504;48.770;9.148;2023-09-12T08:56:58;1.85;;;1.75;;
62588;SDS011;58504;48.770;9.148;2023-09-12T08:59:27;1.30;;;1.30;;
62588;SDS011;58504;48.770;9.148;2023-09-12T09:01:55;1.80;;;1.70;;
62588;SDS011;58504;48.770;9.148;2023-09-12T09:04:23;1.30;;;1.30;;
62588;SDS011;58504;48.770;9.148;2023-09-12T09:06:51;1.38;;;1.38;;
62588;SDS011;58504;48.770;9.148;2023-09-12T09:09:19;1.65;;;1.50;;
62588;SDS011;58504;48.770;9.148;2023-09-12T09:11:50;2.00;;;1.90;;
62588;SDS011;58504;48.770;9.148;2023-09-12T09:14:17;1.40;;;1.40;;
62588;SDS011;58504;48.770;9.148;2023-09-12T09:16:43;1.75;;;1.65;;
62588;SDS011;58504;48.770;9.148;2023-09-12T09:19:10;1.60;;;1.50;;
62588;SDS011;58504;48.770;9.148;2023-09-12T09:21:37;1.55;;;1.55;;
62588;SDS011;58504;48.770;9.148;2023-09-12T09:24:06;1.70;;;1.60;;
62588;SDS011;58504;48.770;9.148;2023-09-12T09:26:41;1.65;;;1.60;;
62588;SDS011;58504;48.770;9.148;2023-09-12T09:29:10;1.75;;;1.65;;
62588;SDS011;58504;48.770;9.148;2023-09-12T09:31:40;1.65;;;1.55;;
62588;SDS011;58504;48.770;9.148;2023-09-12T09:34:10;1.90;;;1.80;;
62588;SDS011;58504;48.770;9.148;2023-09-12T09:36:40;2.10;;;2.00;;
62588;SDS011;58504;48.770;9.148;2023-09-12T09:39:08;1.42;;;1.42;;
62588;SDS011;58504;48.770;9.148;2023-09-12T09:41:35;4.00;;;2.03;;
62588;SDS011;58504;48.770;9.148;2023-09-12T09:44:03;2.15;;;2.05;;
62588;SDS011;58504;48.770;9.148;2023-09-12T09:46:32;1.67;;;1.58;;
62588;SDS011;58504;48.770;9.148;2023-09-12T09:48:59;1.65;;;1.55;;
62588;SDS011;58504;48.770;9.148;2023-09-12T09:51:26;2.03;;;1.90;;
62588;SDS011;58504;48.770;9.148;2023-09-12T09:53:52;2.15;;;2.05;;
62588;SDS011;58504;48.770;9.148;2023-09-12T09:56:23;2.03;;;1.92;;
62588;SDS011;58504;48.770;9.148;2023-09-12T09:58:51;1.75;;;1.73;;
62588;SDS011;58504;48.770;9.148;2023-09-12T10:01:19;1.70;;;1.60;;
62588;SDS011;58504;48.770;9.148;2023-09-12T10:03:48;2.03;;;1.90;;
62588;SDS011;58504;48.770;9.148;2023-09-12T10:06:16;2.15;;;1.95;;
62588;SDS011;58504;48.770;9.148;2023-09-12T10:08:46;1.90;;;1.80;;
62588;SDS011;58504;48.770;9.148;2023-09-12T10:11:16;2.55;;;2.38;;
62588;SDS011;58504;48.770;9.148;2023-09-12T10:13:46;2.30;;;2.10;;
62588;SDS011;58504;48.770;9.148;2023-09-12T10:16:18;1.85;;;1.75;;
62588;SDS011;58504;48.770;9.148;2023-09-12T10:19:04;2.20;;;2.10;;
62588;SDS011;58504;48.770;9.148;2023-09-12T10:21:35;2.10;;;2.00;;
62588;SDS011;58504;48.770;9.148;2023-09-12T10:24:03;1.92;;;1.83;;
62588;SDS011;58504;48.770;9.148;2023-09-12T10:26:31;2.00;;;1.90;;
62588;SDS011;58504;48.770;9.148;2023-09-12T10:28:59;2.80;;;2.60;;
62588;SDS011;58504;48.770;9.148;2023-09-12T10:31:28;1.88;;;1.77;;
62588;SDS011;58504;48.770;9.148;2023-09-12T10:33:57;1.80;;;1.70;;
62588;SDS011;58504;48.770;9.148;2023-09-12T10:36:25;2.03;;;1.92;;
62588;SDS011;58504;48.770;9.148;2023-09-12T10:38:52;2.00;;;1.90;;
62588;SDS011;58504;48.770;9.148;2023-09-12T10:41:21;2.30;;;2.20;;
62588;SDS011;58504;48.770;9.148;2023-09-12T10:43:50;2.25;;;2.03;;
62588;SDS011;58504;48.770;9.148;2023-09-12T10:46:19;2.13;;;2.03;;
62588;SDS011;58504;48.770;9.148;2023-09-12T10:48:47;2.35;;;2.25;;
62588;SDS011;58504;48.770;9.148;2023-09-12T10:51:16;2.33;;;2.17;;
62588;SDS011;58504;48.770;9.148;2023-09-12T10:53:46;2.05;;;1.95;;
62588;SDS011;58504;48.770;9.148;2023-09-12T10:56:16;2.17;;;2.08;;
62588;SDS011;58504;48.770;9.148;2023-09-12T11:01:37;2.10;;;2.00;;
62588;SDS011;58504;48.770;9.148;2023-09-12T11:06:59;2.30;;;2.20;;
62588;SDS011;58504;48.770;9.148;2023-09-12T11:09:26;2.00;;;1.90;;
62588;SDS011;58504;48.770;9.148;2023-09-12T11:11:57;2.10;;;2.00;;
62588;SDS011;58504;48.770;9.148;2023-09-12T11:14:27;2.20;;;2.10;;
62588;SDS011;58504;48.770;9.148;2023-09-12T11:19:49;2.28;;;2.13;;
62588;SDS011;58504;48.770;9.148;2023-09-12T11:22:23;2.67;;;2.47;;
62588;SDS011;58504;48.770;9.148;2023-09-12T11:24:50;2.10;;;2.00;;
62588;SDS011;58504;48.770;9.148;2023-09-12T11:27:18;2.70;;;2.50;;
62588;SDS011;58504;48.770;9.148;2023-09-12T11:29:45;4.03;;;2.45;;
62588;SDS011;58504;48.770;9.148;2023-09-12T11:32:14;2.67;;;2.47;;
62588;SDS011;58504;48.770;9.148;2023-09-12T11:34:52;2.28;;;2.17;;
62588;SDS011;58504;48.770;9.148;2023-09-12T11:37:24;2.00;;;1.90;;
62588;SDS011;58504;48.770;9.148;2023-09-12T11:39:51;2.60;;;2.40;;
62588;SDS011;58504;48.770;9.148;2023-09-12T11:42:19;2.38;;;2.22;;
62588;SDS011;58504;48.770;9.148;2023-09-12T11:44:48;2.35;;;2.25;;
62588;SDS011;58504;48.770;9.148;2023-09-12T11:47:16;2.17;;;2.08;;
62588;SDS011;58504;48.770;9.148;2023-09-12T11:49:43;2.67;;;2.47;;
62588;SDS011;58504;48.770;9.148;2023-09-12T11:52:10;2.53;;;2.42;;
62588;SDS011;58504;48.770;9.148;2023-09-12T11:54:40;2.10;;;2.00;;
62588;SDS011;58504;48.770;9.148;2023-09-12T11:57:07;2.40;;;2.30;;
62588;SDS011;58504;48.770;9.148;2023-09-12T11:59:41;2.72;;;2.55;;
62588;SDS011;58504;48.770;9.148;2023-09-12T12:02:13;3.10;;;2.90;;
62588;SDS011;58504;48.770;9.148;2023-09-12T12:04:40;2.78;;;2.58;;
62588;SDS011;58504;48.770;9.148;2023-09-12T12:07:08;2.17;;;2.03;;
62588;SDS011;58504;48.770;9.148;2023-09-12T12:09:36;2.45;;;2.35;;
62588;SDS011;58504;48.770;9.148;2023-09-12T12:12:08;2.78;;;2.53;;
62588;SDS011;58504;48.770;9.148;2023-09-12T12:14:36;2.78;;;2.58;;
62588;SDS011;58504;48.770;9.148;2023-09-12T12:17:05;2.35;;;2.25;;
62588;SDS011;58504;48.770;9.148;2023-09-12T12:19:33;2.30;;;2.10;;
62588;SDS011;58504;48.770;9.148;2023-09-12T12:22:01;2.92;;;2.72;;
62588;SDS011;58504;48.770;9.148;2023-09-12T12:24:35;3.03;;;2.22;;
62588;SDS011;58504;48.770;9.148;2023-09-12T12:27:04;2.10;;;2.00;;
62588;SDS011;58504;48.770;9.148;2023-09-12T12:29:32;2.70;;;2.35;;
62588;SDS011;58504;48.770;9.148;2023-09-12T12:32:00;2.15;;;2.05;;
62588;SDS011;58504;48.770;9.148;2023-09-12T12:34:27;2.88;;;2.67;;
62588;SDS011;58504;48.770;9.148;2023-09-12T12:36:54;2.53;;;2.35;;
62588;SDS011;58504;48.770;9.148;2023-09-12T12:39:21;2.17;;;2.08;;
62588;SDS011;58504;48.770;9.148;2023-09-12T12:41:48;2.42;;;2.22;;
62588;SDS011;58504;48.770;9.148;2023-09-12T12:44:19;2.75;;;2.60;;
62588;SDS011;58504;48.770;9.148;2023-09-12T12:46:49;2.03;;;1.92;;
62588;SDS011;58504;48.770;9.148;2023-09-12T12:49:17;2.30;;;2.20;;
62588;SDS011;58504;48.770;9.148;2023-09-12T12:51:44;2.95;;;2.40;;
62588;SDS011;58504;48.770;9.148;2023-09-12T12:54:11;2.15;;;2.05;;
62588;SDS011;58504;48.770;9.148;2023-09-12T12:56:38;2.60;;;2.40;;
62588;SDS011;58504;48.770;9.148;2023-09-12T12:59:05;2.80;;;2.13;;
62588;SDS011;58504;48.770;9.148;2023-09-12T13:01:35;2.17;;;2.08;;
62588;SDS011;58504;48.770;9.148;2023-09-12T13:04:04;2.78;;;2.58;;
62588;SDS011;58504;48.770;9.148;2023-09-12T13:06:32;2.97;;;2.42;;
62588;SDS011;58504;48.770;9.148;2023-09-12T13:09:01;3.65;;;2.90;;
62588;SDS011;58504;48.770;9.148;2023-09-12T13:11:30;2.60;;;2.40;;
62588;SDS011;58504;48.770;9.148;2023-09-12T13:13:59;2.28;;;2.08;;
62588;SDS011;58504;48.770;9.148;2023-09-12T13:16:26;2.35;;;2.25;;
62588;SDS011;58504;48.770;9.148;2023-09-12T13:18:54;3.05;;;2.30;;
62588;SDS011;58504;48.770;9.148;2023-09-12T13:21:21;2.42;;;2.28;;
62588;SDS011;58504;48.770;9.148;2023-09-12T13:23:47;2.55;;;2.35;;
62588;SDS011;58504;48.770;9.148;2023-09-12T13:26:15;2.15;;;2.05;;
62588;SDS011;58504;48.770;9.148;2023-09-12T13:28:42;2.20;;;2.10;;
62588;SDS011;58504;48.770;9.148;2023-09-12T13:31:09;2.20;;;2.10;;
62588;SDS011;58504;48.770;9.148;2023-09-12T13:33:36;2.30;;;2.20;;
62588;SDS011;58504;48.770;9.148;2023-09-12T13:36:05;2.75;;;2.55;;
62588;SDS011;58504;48.770;9.148;2023-09-12T13:38:32;2.53;;;2.33;;
62588;SDS011;58504;48.770;9.148;2023-09-12T13:40:59;2.67;;;2.47;;
62588;SDS011;58504;48.770;9.148;2023-09-12T13:43:25;2.30;;;2.20;;
62588;SDS011;58504;48.770;9.148;2023-09-12T13:45:53;2.10;;;2.00;;
62588;SDS011;58504;48.770;9.148;2023-09-12T13:48:19;2.35;;;2.15;;
62588;SDS011;58504;48.770;9.148;2023-09-12T13:50:46;2.60;;;2.50;;
62588;SDS011;58504;48.770;9.148;2023-09-12T13:53:14;2.60;;;2.40;;
62588;SDS011;58504;48.770;9.148;2023-09-12T13:55:41;2.10;;;2.00;;
62588;SDS011;58504;48.770;9.148;2023-09-12T13:58:08;2.30;;;2.20;;
62588;SDS011;58504;48.770;9.148;2023-09-12T14:00:34;2.10;;;2.00;;
62588;SDS011;58504;48.770;9.148;2023-09-12T14:03:01;2.28;;;2.17;;
62588;SDS011;58504;48.770;9.148;2023-09-12T14:05:29;2.10;;;2.00;;
62588;SDS011;58504;48.770;9.148;2023-09-12T14:07:55;2.78;;;2.58;;
62588;SDS011;58504;48.770;9.148;2023-09-12T14:10:23;2.83;;;2.63;;
62588;SDS011;58504;48.770;9.148;2023-09-12T14:12:50;2.70;;;2.50;;
62588;SDS011;58504;48.770;9.148;2023-09-12T14:15:17;2.65;;;2.55;;
62588;SDS011;58504;48.770;9.148;2023-09-12T14:17:44;2.30;;;2.20;;
62588;SDS011;58504;48.770;9.148;2023-09-12T14:20:11;2.53;;;2.33;;
62588;SDS011;58504;48.770;9.148;2023-09-12T14:22:40;2.53;;;2.33;;
62588;SDS011;58504;48.770;9.148;2023-09-12T14:25:07;2.55;;;2.33;;
62588;SDS011;58504;48.770;9.148;2023-09-12T14:27:40;2.65;;;2.45;;
62588;SDS011;58504;48.770;9.148;2023-09-12T14:30:08;2.72;;;2.53;;
62588;SDS011;58504;48.770;9.148;2023-09-12T14:32:37;3.10;;;2.38;;
62588;SDS011;58504;48.770;9.148;2023-09-12T14:35:04;2.90;;;2.80;;
62588;SDS011;58504;48.770;9.148;2023-09-12T14:37:32;2.60;;;2.40;;
62588;SDS011;58504;48.770;9.148;2023-09-12T14:40:00;4.50;;;2.55;;
62588;SDS011;58504;48.770;9.148;2023-09-12T14:42:29;2.70;;;2.60;;
62588;SDS011;58504;48.770;9.148;2023-09-12T14:44:57;2.50;;;2.30;;
62588;SDS011;58504;48.770;9.148;2023-09-12T14:47:24;2.83;;;2.63;;
62588;SDS011;58504;48.770;9.148;2023-09-12T14:49:52;2.22;;;2.03;;
62588;SDS011;58504;48.770;9.148;2023-09-12T14:52:19;2.53;;;2.42;;
62588;SDS011;58504;48.770;9.148;2023-09-12T14:54:46;2.70;;;2.60;;
62588;SDS011;58504;48.770;9.148;2023-09-12T14:57:13;2.88;;;2.70;;
62588;SDS011;58504;48.770;9.148;2023-09-12T14:59:40;2.75;;;2.55;;
62588;SDS011;58504;48.770;9.148;2023-09-12T15:02:08;2.15;;;2.05;;